createdAt,value
2022-11-25T00:01:51.823Z,8.45
2022-11-25T00:04:22.795Z,8.46
2022-11-25T00:06:52.491Z,8.48
2022-11-25T00:09:22.339Z,8.49
2022-11-25T00:11:52.060Z,8.49
2022-11-25T00:14:21.816Z,8.50
2022-11-25T00:16:54.202Z,8.51
2022-11-25T00:19:23.959Z,8.50
2022-11-25T00:21:53.713Z,8.53
2022-11-25T00:24:23.428Z,8.54
2022-11-25T00:26:53.119Z,8.53
2022-11-25T00:29:22.859Z,8.52
2022-11-25T00:31:55.270Z,8.52
2022-11-25T00:34:25.137Z,8.51
2022-11-25T00:36:55.315Z,8.49
2022-11-25T00:39:25.855Z,8.53
2022-11-25T00:42:07.979Z,8.53
2022-11-25T00:44:41.447Z,8.52
2022-11-25T00:47:16.016Z,8.52
2022-11-25T00:49:47.506Z,8.51
2022-11-25T00:52:19.215Z,8.50
2022-11-25T00:54:50.526Z,8.49
2022-11-25T00:57:21.350Z,8.51
2022-11-25T00:59:51.548Z,8.52
2022-11-25T01:02:24.412Z,8.51
2022-11-25T01:04:54.176Z,8.50
2022-11-25T01:07:23.918Z,8.52
2022-11-25T01:09:53.690Z,8.53
2022-11-25T01:12:23.412Z,8.53
2022-11-25T01:14:53.123Z,8.54
2022-11-25T01:17:25.436Z,8.56
2022-11-25T01:19:55.137Z,8.56
2022-11-25T01:22:24.879Z,8.57
2022-11-25T01:24:54.576Z,8.58
2022-11-25T01:27:24.276Z,8.58
2022-11-25T01:29:53.952Z,8.59
2022-11-25T01:32:26.296Z,8.60
2022-11-25T01:34:56.012Z,8.61
2022-11-25T01:37:25.736Z,8.61
2022-11-25T01:39:55.486Z,8.63
2022-11-25T01:42:25.204Z,8.64
2022-11-25T01:45:35.177Z,8.65
2022-11-25T01:48:15.607Z,8.64
2022-11-25T01:50:46.884Z,8.63
2022-11-25T01:53:19.218Z,8.63
2022-11-25T01:55:54.368Z,8.63
2022-11-25T01:58:28.528Z,8.62
2022-11-25T02:00:58.461Z,8.62
2022-11-25T02:03:34.914Z,8.63
2022-11-25T02:06:10.555Z,8.62
2022-11-25T02:08:41.399Z,8.63
2022-11-25T02:11:11.176Z,8.63
2022-11-25T02:13:41.409Z,8.63
2022-11-25T02:16:11.335Z,8.63
2022-11-25T02:18:44.047Z,8.63
2022-11-25T02:21:14.022Z,8.64
2022-11-25T02:23:51.071Z,8.66
2022-11-25T02:26:23.725Z,8.67
2022-11-25T02:28:55.432Z,8.68
2022-11-25T02:31:26.359Z,8.70
2022-11-25T02:33:56.150Z,8.71
2022-11-25T02:36:26.778Z,8.72
2022-11-25T02:38:59.145Z,8.72
2022-11-25T02:41:34.667Z,8.73
2022-11-25T02:44:05.159Z,8.72
2022-11-25T02:46:35.994Z,8.75
2022-11-25T02:49:09.237Z,8.74
2022-11-25T02:51:40.679Z,8.77
2022-11-25T02:54:10.951Z,8.77
2022-11-25T02:56:43.423Z,8.78
2022-11-25T02:59:14.032Z,8.77
2022-11-25T03:01:44.141Z,8.78
2022-11-25T03:04:14.074Z,8.78
2022-11-25T03:06:43.760Z,8.77
2022-11-25T03:09:13.589Z,8.78
2022-11-25T03:11:58.299Z,8.74
2022-11-25T03:14:28.127Z,8.72
2022-11-25T03:16:57.898Z,8.72
2022-11-25T03:19:27.832Z,8.70
2022-11-25T03:21:57.592Z,8.70
2022-11-25T03:24:27.387Z,8.70
2022-11-25T03:26:59.701Z,8.72
2022-11-25T03:29:29.413Z,8.71
2022-11-25T03:31:59.189Z,8.71
2022-11-25T03:34:29.159Z,8.71
2022-11-25T03:36:58.883Z,8.73
2022-11-25T03:39:28.713Z,8.75
2022-11-25T03:42:01.052Z,8.77
2022-11-25T03:44:30.754Z,8.78
2022-11-25T03:47:00.452Z,8.81
2022-11-25T03:49:30.213Z,8.83
2022-11-25T03:52:00.004Z,8.84
2022-11-25T03:54:30.037Z,8.85
2022-11-25T03:57:02.381Z,8.87
2022-11-25T03:59:32.104Z,8.88
2022-11-25T04:02:01.885Z,8.90
2022-11-25T04:04:31.703Z,8.90
2022-11-25T04:07:01.472Z,8.92
2022-11-25T04:09:31.257Z,8.92
2022-11-25T04:12:15.996Z,8.92
2022-11-25T04:14:45.733Z,8.93
2022-11-25T04:17:15.464Z,8.94
2022-11-25T04:19:45.148Z,8.95
2022-11-25T04:22:14.929Z,8.97
2022-11-25T04:24:44.684Z,8.95
2022-11-25T04:27:17.916Z,8.96
2022-11-25T04:29:49.924Z,8.96
2022-11-25T04:32:19.651Z,8.96
2022-11-25T04:34:49.380Z,8.95
2022-11-25T04:37:19.076Z,8.97
2022-11-25T04:39:48.786Z,8.98
2022-11-25T04:42:33.620Z,8.99
2022-11-25T04:47:54.230Z,8.98
2022-11-25T04:50:27.028Z,8.97
2022-11-25T04:52:56.717Z,8.97
2022-11-25T04:55:26.535Z,8.98
2022-11-25T04:57:59.166Z,8.98
2022-11-25T05:00:26.356Z,8.99
2022-11-25T05:02:56.050Z,9.00
2022-11-25T05:05:26.127Z,9.01
2022-11-25T05:07:55.905Z,9.02
2022-11-25T05:10:25.767Z,9.02
2022-11-25T05:12:58.100Z,9.03
2022-11-25T05:15:27.804Z,9.06
2022-11-25T05:17:57.570Z,9.07
2022-11-25T05:20:27.357Z,9.07
2022-11-25T05:22:57.054Z,9.10
2022-11-25T05:25:27.108Z,9.13
2022-11-25T05:28:01.769Z,9.12
2022-11-25T05:30:31.708Z,9.12
2022-11-25T05:33:01.437Z,9.13
2022-11-25T05:35:31.196Z,9.14
2022-11-25T05:38:04.430Z,9.15
2022-11-25T05:40:34.651Z,9.15
2022-11-25T05:43:06.981Z,9.15
2022-11-25T05:45:36.709Z,9.16
2022-11-25T05:48:06.674Z,9.17
2022-11-25T05:50:36.398Z,9.16
2022-11-25T05:53:06.249Z,9.16
2022-11-25T05:55:36.003Z,9.15
2022-11-25T05:58:08.531Z,9.15
2022-11-25T06:00:38.583Z,9.14
2022-11-25T06:03:08.687Z,9.14
2022-11-25T06:05:38.739Z,9.12
2022-11-25T06:08:08.531Z,9.12
2022-11-25T06:10:41.534Z,9.12
2022-11-25T06:13:13.845Z,9.12
2022-11-25T06:15:45.014Z,9.13
2022-11-25T06:18:15.963Z,9.13
2022-11-25T06:20:45.809Z,9.13
2022-11-25T06:23:15.549Z,9.14
2022-11-25T06:25:45.724Z,9.15
2022-11-25T06:28:18.052Z,9.14
2022-11-25T06:30:48.101Z,9.14
2022-11-25T06:33:17.840Z,9.14
2022-11-25T06:35:47.543Z,9.16
2022-11-25T06:38:17.270Z,9.15
2022-11-25T06:40:46.972Z,9.16
2022-11-25T06:43:19.331Z,9.16
2022-11-25T06:45:49.044Z,9.18
2022-11-25T06:48:18.767Z,9.17
2022-11-25T06:50:48.488Z,9.19
2022-11-25T06:53:23.842Z,9.19
2022-11-25T06:56:04.901Z,9.22
2022-11-25T06:58:37.687Z,9.22
2022-11-25T07:01:09.366Z,9.24
2022-11-25T07:03:39.210Z,9.25
2022-11-25T07:06:10.067Z,9.26
2022-11-25T07:08:39.792Z,9.28
2022-11-25T07:11:11.259Z,9.27
2022-11-25T07:13:43.579Z,9.26
2022-11-25T07:16:14.832Z,9.25
2022-11-25T07:18:44.656Z,9.25
2022-11-25T07:21:16.120Z,9.26
2022-11-25T07:23:47.623Z,9.25
2022-11-25T07:26:21.800Z,9.26
2022-11-25T07:28:55.783Z,9.26
2022-11-25T07:31:31.082Z,9.25
2022-11-25T07:34:04.033Z,9.26
2022-11-25T07:36:35.089Z,9.26
2022-11-25T07:39:08.174Z,9.27
2022-11-25T07:41:38.098Z,9.27
2022-11-25T07:44:11.074Z,9.26
2022-11-25T07:46:43.249Z,9.26
2022-11-25T07:49:15.118Z,9.27
2022-11-25T07:51:46.542Z,9.26
2022-11-25T07:54:16.464Z,9.25
2022-11-25T07:56:48.645Z,9.26
2022-11-25T07:59:23.266Z,9.24
2022-11-25T08:01:54.283Z,9.23
2022-11-25T08:04:24.572Z,9.22
2022-11-25T08:06:55.741Z,9.22
2022-11-25T08:09:26.684Z,9.24
2022-11-25T08:11:56.462Z,9.23
2022-11-25T08:14:28.863Z,9.24
2022-11-25T08:16:58.590Z,9.25
2022-11-25T08:19:31.448Z,9.24
2022-11-25T08:22:01.599Z,9.23
2022-11-25T08:24:31.324Z,9.24
2022-11-25T08:27:03.374Z,9.27
2022-11-25T08:29:35.995Z,9.31
2022-11-25T08:32:11.754Z,9.36
2022-11-25T08:34:41.936Z,9.43
2022-11-25T08:37:11.725Z,9.47
2022-11-25T08:39:52.291Z,9.52
2022-11-25T08:42:22.636Z,9.57
2022-11-25T08:44:58.300Z,9.59
2022-11-25T08:47:28.035Z,9.62
2022-11-25T08:49:58.573Z,9.63
2022-11-25T08:52:29.543Z,9.65
2022-11-25T08:54:59.264Z,9.68
2022-11-25T08:57:28.992Z,9.67
2022-11-25T09:00:01.300Z,9.68
2022-11-25T09:02:31.096Z,9.69
2022-11-25T09:05:00.973Z,9.69
2022-11-25T09:07:31.199Z,9.67
2022-11-25T09:10:03.827Z,9.66
2022-11-25T09:12:33.614Z,9.66
2022-11-25T09:15:06.048Z,9.67
2022-11-25T09:17:37.533Z,9.68
2022-11-25T09:20:08.714Z,9.68
2022-11-25T09:22:39.248Z,9.68
2022-11-25T09:25:10.230Z,9.71
2022-11-25T09:27:39.962Z,9.71
2022-11-25T09:30:13.861Z,9.72
2022-11-25T09:32:44.762Z,9.74
2022-11-25T09:35:14.508Z,9.73
2022-11-25T09:37:44.229Z,9.73
2022-11-25T09:40:20.849Z,9.74
2022-11-25T09:43:09.804Z,9.75
2022-11-25T09:46:04.996Z,9.75
2022-11-25T09:48:51.010Z,9.77
2022-11-25T09:51:24.477Z,9.77
2022-11-25T09:53:57.195Z,9.80
2022-11-25T09:56:36.666Z,9.82
2022-11-25T09:59:11.138Z,9.85
2022-11-25T10:01:51.025Z,9.87
2022-11-25T10:04:25.621Z,9.88
2022-11-25T10:07:01.270Z,9.91
2022-11-25T10:09:35.518Z,9.93
2022-11-25T10:12:09.975Z,9.94
2022-11-25T10:14:45.710Z,9.98
2022-11-25T10:17:30.219Z,9.99
2022-11-25T10:20:04.511Z,10.00
2022-11-25T10:22:37.595Z,10.03
2022-11-25T10:25:18.042Z,10.06
2022-11-25T10:27:52.052Z,10.08
2022-11-25T10:30:24.376Z,10.09
2022-11-25T10:33:02.784Z,10.10
2022-11-25T10:35:37.054Z,10.12
2022-11-25T10:38:15.801Z,10.14
2022-11-25T10:40:50.536Z,10.18
2022-11-25T10:43:20.463Z,10.21
2022-11-25T10:46:05.161Z,10.21
2022-11-25T10:48:55.529Z,10.24
2022-11-25T10:51:38.346Z,10.26
2022-11-25T10:54:26.854Z,10.29
2022-11-25T10:56:59.544Z,10.28
2022-11-25T10:59:32.463Z,10.30
2022-11-25T11:02:19.890Z,10.32
2022-11-25T11:04:59.449Z,10.34
2022-11-25T11:07:31.071Z,10.33
2022-11-25T11:10:18.337Z,10.37
2022-11-25T11:12:59.491Z,10.42
2022-11-25T11:15:31.116Z,10.45
2022-11-25T11:18:03.048Z,10.46
2022-11-25T11:20:35.445Z,10.44
2022-11-25T11:23:09.207Z,10.44
2022-11-25T11:25:40.739Z,10.45
2022-11-25T11:28:29.196Z,10.49
2022-11-25T11:31:03.021Z,10.52
2022-11-25T11:33:37.231Z,10.56
2022-11-25T11:36:24.497Z,10.63
2022-11-25T11:38:57.770Z,10.65
2022-11-25T11:41:39.479Z,10.70
2022-11-25T11:44:22.110Z,10.74
2022-11-25T11:47:06.807Z,10.80
2022-11-25T11:49:59.740Z,10.86
2022-11-25T11:52:43.737Z,10.90
2022-11-25T11:55:26.373Z,10.94
2022-11-25T11:58:04.127Z,10.96
2022-11-25T12:00:37.213Z,10.99
2022-11-25T12:03:16.039Z,11.03
2022-11-25T12:05:45.826Z,11.05
2022-11-25T12:08:26.311Z,11.09
2022-11-25T12:10:59.363Z,11.11
2022-11-25T12:13:38.982Z,11.13
2022-11-25T12:16:16.284Z,11.14
2022-11-25T12:18:53.601Z,11.15
2022-11-25T12:21:41.850Z,11.17
2022-11-25T12:24:24.660Z,11.19
2022-11-25T12:27:00.732Z,11.19
2022-11-25T12:29:38.320Z,11.21
2022-11-25T12:32:25.811Z,11.22
2022-11-25T12:35:00.813Z,11.20
2022-11-25T12:37:35.373Z,11.20
2022-11-25T12:40:15.271Z,11.20
2022-11-25T12:42:47.011Z,11.22
2022-11-25T12:45:23.602Z,11.29
2022-11-25T12:47:54.339Z,11.33
2022-11-25T12:50:33.111Z,11.40
2022-11-25T12:53:09.220Z,11.44
2022-11-25T12:55:43.575Z,11.47
2022-11-25T12:58:33.407Z,11.51
2022-11-25T13:01:27.666Z,11.52
2022-11-25T13:04:35.614Z,11.54
2022-11-25T13:07:38.188Z,11.57
2022-11-25T13:10:35.136Z,11.56
2022-11-25T13:13:27.879Z,11.53
2022-11-25T13:15:59.397Z,11.53
2022-11-25T13:18:33.750Z,11.53
2022-11-25T13:21:10.015Z,11.52
2022-11-25T13:23:52.347Z,11.53
2022-11-25T13:26:41.728Z,11.52
2022-11-25T13:30:02.837Z,11.51
2022-11-25T13:32:43.433Z,11.52
2022-11-25T13:35:34.581Z,11.53
2022-11-25T13:38:04.400Z,11.54
2022-11-25T13:40:41.371Z,11.54
2022-11-25T13:43:25.119Z,11.56
2022-11-25T13:45:55.242Z,11.55
2022-11-25T13:48:30.674Z,11.55
2022-11-25T13:51:17.419Z,11.56
2022-11-25T13:53:54.534Z,11.56
2022-11-25T13:56:31.321Z,11.57
2022-11-25T13:59:22.754Z,11.58
2022-11-25T14:01:57.239Z,11.58
2022-11-25T14:04:46.616Z,11.58
2022-11-25T14:07:30.888Z,11.56
2022-11-25T14:10:21.468Z,11.56
2022-11-25T14:13:08.118Z,11.54
2022-11-25T14:15:52.613Z,11.51
2022-11-25T14:21:55.857Z,11.43
2022-11-25T14:24:32.945Z,11.41
2022-11-25T14:27:03.744Z,11.38
2022-11-25T14:29:41.404Z,11.36
2022-11-25T14:32:15.989Z,11.34
2022-11-25T14:34:49.326Z,11.32
2022-11-25T14:37:26.724Z,11.28
2022-11-25T14:40:03.585Z,11.25
2022-11-25T14:42:38.200Z,11.20
2022-11-25T14:45:23.858Z,11.18
2022-11-25T14:47:53.727Z,11.14
2022-11-25T14:50:39.066Z,11.09
2022-11-25T14:53:14.876Z,11.05
2022-11-25T14:55:44.732Z,11.03
2022-11-25T14:58:15.848Z,10.99
2022-11-25T15:00:54.272Z,10.96
2022-11-25T15:03:23.996Z,10.90
2022-11-25T15:05:59.623Z,10.87
2022-11-25T15:08:40.776Z,10.85
2022-11-25T15:11:16.388Z,10.82
2022-11-25T15:13:47.876Z,10.81
2022-11-25T15:16:20.105Z,10.78
2022-11-25T15:18:53.168Z,10.76
2022-11-25T15:21:26.168Z,10.73
2022-11-25T15:23:58.787Z,10.69
2022-11-25T15:26:30.541Z,10.67
2022-11-25T15:29:02.910Z,10.65
2022-11-25T15:31:35.230Z,10.64
2022-11-25T15:34:07.114Z,10.64
2022-11-25T15:36:37.024Z,10.62
2022-11-25T15:39:27.966Z,10.62
2022-11-25T15:41:59.399Z,10.58
2022-11-25T15:44:32.232Z,10.56
2022-11-25T15:47:05.614Z,10.54
2022-11-25T15:49:37.006Z,10.49
2022-11-25T15:52:10.348Z,10.47
2022-11-25T15:54:47.174Z,10.46
2022-11-25T15:57:20.724Z,10.44
2022-11-25T15:59:53.628Z,10.42
2022-11-25T16:02:40.085Z,10.39
2022-11-25T16:05:29.100Z,10.38
2022-11-25T16:08:27.268Z,10.33
2022-11-25T16:11:02.324Z,10.31
2022-11-25T16:13:37.627Z,10.27
2022-11-25T16:16:20.514Z,10.24
2022-11-25T16:19:07.903Z,10.18
2022-11-25T16:21:48.743Z,10.16
2022-11-25T16:24:33.493Z,10.12
2022-11-25T16:27:08.123Z,10.10
2022-11-25T16:29:41.213Z,10.09
2022-11-25T16:32:17.155Z,10.07
2022-11-25T16:34:47.411Z,10.05
2022-11-25T16:37:17.415Z,10.03
2022-11-25T16:39:47.124Z,10.00
2022-11-25T16:42:24.684Z,9.98
2022-11-25T16:44:55.385Z,9.94
2022-11-25T16:47:26.354Z,9.92
2022-11-25T16:49:56.540Z,9.90
2022-11-25T16:52:26.321Z,9.90
2022-11-25T16:54:55.999Z,9.88
2022-11-25T16:57:28.379Z,9.86
2022-11-25T17:00:01.040Z,9.86
2022-11-25T17:02:30.996Z,9.85
2022-11-25T17:05:09.634Z,9.84
2022-11-25T17:07:39.419Z,9.84
2022-11-25T17:10:10.716Z,9.83
2022-11-25T17:12:45.537Z,9.80
2022-11-25T17:15:18.793Z,9.76
2022-11-25T17:17:50.219Z,9.73
2022-11-25T17:20:23.961Z,9.72
2022-11-25T17:22:54.247Z,9.71
2022-11-25T17:25:25.747Z,9.70
2022-11-25T17:27:58.892Z,9.66
2022-11-25T17:30:30.195Z,9.63
2022-11-25T17:33:04.732Z,9.61
2022-11-25T17:35:34.459Z,9.58
2022-11-25T17:38:04.201Z,9.57
2022-11-25T17:40:34.572Z,9.54
2022-11-25T17:43:07.115Z,9.55
2022-11-25T17:45:36.909Z,9.53
2022-11-25T17:48:11.646Z,9.51
2022-11-25T17:50:42.707Z,9.49
2022-11-25T17:53:12.607Z,9.48
2022-11-25T17:55:43.722Z,9.46
2022-11-25T17:58:19.332Z,9.47
2022-11-25T18:00:49.371Z,9.48
2022-11-25T18:03:19.760Z,9.49
2022-11-25T18:05:49.505Z,9.51
2022-11-25T18:08:19.270Z,9.51
2022-11-25T18:10:49.591Z,9.51
2022-11-25T18:13:21.919Z,9.50
2022-11-25T18:15:51.752Z,9.46
2022-11-25T18:18:24.357Z,9.43
2022-11-25T18:20:54.387Z,9.41
2022-11-25T18:23:24.233Z,9.38
2022-11-25T18:25:55.323Z,9.36
2022-11-25T18:28:29.569Z,9.35
2022-11-25T18:31:03.064Z,9.31
2022-11-25T18:33:33.529Z,9.28
2022-11-25T18:36:03.339Z,9.24
2022-11-25T18:38:33.218Z,9.21
2022-11-25T18:41:04.455Z,9.18
2022-11-25T18:43:37.709Z,9.17
2022-11-25T18:46:07.942Z,9.14
2022-11-25T18:48:37.744Z,9.11
2022-11-25T18:51:08.853Z,9.07
2022-11-25T18:53:38.564Z,9.04
2022-11-25T18:56:08.565Z,9.01
2022-11-25T18:58:41.042Z,8.97
2022-11-25T19:01:15.964Z,8.94
2022-11-25T19:03:45.726Z,8.91
2022-11-25T19:06:17.149Z,8.87
2022-11-25T19:08:46.876Z,8.84
2022-11-25T19:11:20.348Z,8.83
2022-11-25T19:13:53.752Z,8.84
2022-11-25T19:16:25.483Z,8.81
2022-11-25T19:18:55.718Z,8.80
2022-11-25T19:21:25.470Z,8.80
2022-11-25T19:23:55.239Z,8.80
2022-11-25T19:26:30.776Z,8.79
2022-11-25T19:29:08.035Z,8.78
2022-11-25T19:31:38.503Z,8.79
2022-11-25T19:34:08.627Z,8.79
2022-11-25T19:36:38.368Z,8.78
2022-11-25T19:39:18.316Z,8.80
2022-11-25T19:41:49.535Z,8.79
2022-11-25T19:44:21.944Z,8.80
2022-11-25T19:47:14.166Z,8.78
2022-11-25T19:49:42.948Z,8.76
2022-11-25T19:52:17.877Z,8.77
2022-11-25T19:54:47.591Z,8.76
2022-11-25T19:57:19.778Z,8.75
2022-11-25T19:59:52.486Z,8.73
2022-11-25T20:02:26.614Z,8.71
2022-11-25T20:04:59.395Z,8.67
2022-11-25T20:07:31.224Z,8.65
2022-11-25T20:10:09.803Z,8.64
2022-11-25T20:12:39.476Z,8.61
2022-11-25T20:15:14.282Z,8.61
2022-11-25T20:17:47.286Z,8.63
2022-11-25T20:20:20.262Z,8.63
2022-11-25T20:22:57.628Z,8.59
2022-11-25T20:25:27.495Z,8.56
2022-11-25T20:27:57.449Z,8.53
2022-11-25T20:30:31.801Z,8.50
2022-11-25T20:33:01.501Z,8.46
2022-11-25T20:35:33.039Z,8.48
2022-11-25T20:38:03.180Z,8.48
2022-11-25T20:40:39.935Z,8.51
2022-11-25T20:43:14.555Z,8.52
2022-11-25T20:45:46.922Z,8.52
2022-11-25T20:48:16.736Z,8.53
2022-11-25T20:50:46.562Z,8.52
2022-11-25T20:53:17.448Z,8.51
2022-11-25T20:55:48.248Z,8.49
2022-11-25T20:58:24.076Z,8.49
2022-11-25T21:00:58.079Z,8.46
2022-11-25T21:03:28.360Z,8.45
2022-11-25T21:05:58.412Z,8.42
2022-11-25T21:08:31.664Z,8.41
2022-11-25T21:11:01.905Z,8.37
2022-11-25T21:13:33.287Z,8.36
2022-11-25T21:16:05.585Z,8.34
2022-11-25T21:18:35.325Z,8.32
2022-11-25T21:21:05.353Z,8.31
2022-11-25T21:23:38.470Z,8.29
2022-11-25T21:26:10.870Z,8.27
2022-11-25T21:28:44.356Z,8.26
2022-11-25T21:31:19.555Z,8.22
2022-11-25T21:33:49.932Z,8.19
2022-11-25T21:36:21.808Z,8.17
2022-11-25T21:38:54.194Z,8.15
2022-11-25T21:41:23.967Z,8.14
2022-11-25T21:43:54.265Z,8.13
2022-11-25T21:46:29.042Z,8.11
2022-11-25T21:48:58.843Z,8.09
2022-11-25T21:51:28.547Z,8.08
2022-11-25T21:53:58.243Z,8.08
2022-11-25T21:56:29.696Z,8.08
2022-11-25T21:59:01.270Z,8.06
2022-11-25T22:01:33.609Z,8.05
2022-11-25T22:04:03.464Z,8.02
2022-11-25T22:06:33.780Z,8.00
2022-11-25T22:09:05.908Z,7.96
2022-11-25T22:11:38.472Z,7.95
2022-11-25T22:14:13.433Z,7.93
2022-11-25T22:16:45.839Z,7.91
2022-11-25T22:19:22.706Z,7.91
2022-11-25T22:21:52.429Z,7.88
2022-11-25T22:24:23.444Z,7.87
2022-11-25T22:26:58.015Z,7.85
2022-11-25T22:29:35.532Z,7.83
2022-11-25T22:32:12.556Z,7.80
2022-11-25T22:34:42.700Z,7.79
2022-11-25T22:37:18.980Z,7.80
2022-11-25T22:39:49.288Z,7.79
2022-11-25T22:42:28.589Z,7.78
2022-11-25T22:45:00.147Z,7.77
2022-11-25T22:47:39.007Z,7.78
2022-11-25T22:50:17.065Z,7.75
2022-11-25T22:52:46.817Z,7.73
2022-11-25T22:55:21.323Z,7.70
2022-11-25T22:57:52.694Z,7.68
2022-11-25T23:00:25.437Z,7.66
2022-11-25T23:02:59.748Z,7.66
2022-11-25T23:05:33.495Z,7.66
2022-11-25T23:08:04.671Z,7.66
2022-11-25T23:10:35.115Z,7.65
2022-11-25T23:13:04.795Z,7.66
2022-11-25T23:15:35.211Z,7.67
2022-11-25T23:18:10.347Z,7.66
2022-11-25T23:20:42.319Z,7.66
2022-11-25T23:23:17.086Z,7.68
2022-11-25T23:25:47.375Z,7.70
2022-11-25T23:28:17.511Z,7.69
2022-11-25T23:30:51.400Z,7.68
2022-11-25T23:33:31.375Z,7.66
2022-11-25T23:36:06.217Z,7.67
2022-11-25T23:38:44.471Z,7.67
2022-11-25T23:41:19.227Z,7.66
2022-11-25T23:43:48.984Z,7.63
2022-11-25T23:46:19.969Z,7.59
2022-11-25T23:48:57.917Z,7.60
2022-11-25T23:51:29.198Z,7.61
2022-11-25T23:53:59.891Z,7.60
2022-11-25T23:56:30.580Z,7.61
2022-11-25T23:59:01.256Z,7.59
